메인 페이지
METAR-TAF:

METAR-TAF

공항 :

Collin County Regional Airport at McKinney

McKinney, 텍사스, 미국

위도: 33-10-40N, 경도: 096-35-25W, 고도: 178m

현재 날씨관측

예보는 21분 전, 04:53시(UTC)에 발표되었습니다.
북북동7kt
온도 12°C
습도 82%
기압 1025 hPa
시정: 16.1km
맑음

METAR: KTKI 260453Z AUTO 02007KT 10SM CLR 12/09 A3028 RMK AO2 SLP260 T01220089

시각: 00:14 (05:14 UTC)


TAF: 누락

4,000개 이상의 공항 관측 자료 및 예보 (METAR 및 TAF 보고).

지도상에서 검색 가능한 기상관측소가 노란 점과 빨간 점으로 표시되어 있습니다.

기상관측소 명을 보려면 표시 위로 마우스를 이동하세요.

날씨 관측과 예보를 보려면 클릭하세요.

지도 변경 : 확대하려면 엑스 표시가 있는 녹색 버튼, 축소하려면 빼기 표시가 있는 녹색 버튼, 다음 페이지의 지도를 보려면 녹색 화살표를 클릭하세요.


METAR-TAF: